ADDS METAR Data INFO
IDs: Format: Raw Decoded Include TAF

Data at: 2304 UTC 21 Feb 2018

KFET 212255Z AUTO 06005KT 10SM CLR M04/M10 A3056 RMK AO2 T10441105
KFET 212235Z AUTO 04004KT 10SM CLR M04/M11 A3056 RMK AO2 T10421109
KFET 212215Z AUTO 08005KT 10SM CLR M04/M11 A3056 RMK AO2 T10431111
KFET 212155Z AUTO 09006KT 10SM CLR M04/M11 A3055 RMK AO2 T10441110
KFET 212135Z AUTO 08003KT 10SM CLR M04/M11 A3056 RMK AO2 T10411108
KFET 212115Z AUTO 08006KT 10SM CLR M04/M10 A3056 RMK AO2 T10421101
KFET 212055Z AUTO 05005KT 10SM CLR M05/M11 A3056 RMK AO2 T10481114
KFET 212035Z AUTO 08004KT 10SM CLR M05/M12 A3057 RMK AO2 T10471119
KFET 212015Z AUTO 07004KT 10SM CLR M05/M11 A3059 RMK AO2 T10481115
KFET 211955Z AUTO 00000KT 10SM CLR M05/M13 A3060 RMK AO2 T10541126
KFET 211935Z AUTO 04003KT 10SM CLR M06/M13 A3060 RMK AO2 T10571127
KFET 211915Z AUTO 00000KT 10SM CLR M06/M14 A3060 RMK AO2 T10601139
KFET 211835Z AUTO 00000KT 10SM CLR M06/M12 A3062 RMK AO2 T10631122
KFET 211815Z AUTO 10005KT 10SM CLR M07/M13 A3062 RMK AO2 T10691134
KFET 211755Z AUTO 06003KT 10SM CLR M07/M13 A3063 RMK AO2 T10741134 11074 21140
KFET 211735Z AUTO 00000KT 10SM CLR M08/M15 A3064 RMK AO2 T10801147
KFET 211715Z AUTO 00000KT 10SM CLR M08/M14 A3064 RMK AO2 T10851143
KFET 211655Z AUTO 00000KT 10SM CLR M09/M14 A3064 RMK AO2 T10901140
KFET 211635Z AUTO 00000KT 10SM CLR M09/M14 A3064 RMK AO2 T10951145
KFET 211615Z AUTO 00000KT 10SM CLR M10/M15 A3065 RMK AO2 T11011149
KFET 211555Z AUTO 00000KT 10SM CLR M10/M15 A3065 RMK AO2 T11051150
KFET 211535Z AUTO 00000KT 10SM CLR M11/M16 A3065 RMK AO2 T11151160
KFET 211515Z AUTO 00000KT 10SM CLR M12/M16 A3064 RMK AO2 T11201159
KFET 211455Z AUTO 00000KT 10SM CLR M12/M16 A3063 RMK AO2 T11251164
KFET 211435Z AUTO 00000KT 10SM CLR M13/M16 A3062 RMK AO2 T11301165
KFET 211415Z AUTO 31004KT 10SM CLR M13/M17 A3060 RMK AO2 T11351167
KFET 211355Z AUTO 00000KT 10SM CLR M14/M17 A3061 RMK AO2 T11371171
KFET 211335Z AUTO 00000KT 10SM CLR M14/M17 A3061 RMK AO2 T11381171
KFET 211315Z AUTO 00000KT 10SM CLR M14/M17 A3060 RMK AO2 T11401171
KFET 211255Z AUTO 00000KT 10SM CLR M14/M17 A3059 RMK AO2 T11401170
KFET 210755Z AUTO 32005KT 10SM CLR M13/M16 A3052 RMK AO2 T11271157
KFET 210735Z AUTO 32005KT 10SM CLR M13/M16 A3051 RMK AO2 T11271157
KFET 210715Z AUTO 33004KT 10SM CLR M13/M15 A3051 RMK AO2 T11261155
KFET 210655Z AUTO 32006KT 10SM CLR M13/M15 A3049 RMK AO2 T11261154
KFET 210635Z AUTO 32007KT 10SM CLR M12/M15 A3049 RMK AO2 T11251153
KFET 210615Z AUTO 32006KT 10SM CLR M12/M15 A3048 RMK AO2 T11251155
KFET 210555Z AUTO 31004KT 10SM CLR M12/M15 A3048 RMK AO2 T11231154 11085 21123 410621123
KFET 201515Z AUTO 31014KT 10SM SCT016 OVC034 M10/M13 A3010 RMK AO2 T11041131
KFET 201455Z AUTO 31012KT 10SM SCT016 OVC032 M10/M12 A3008 RMK AO2 T11001125
KFET 201435Z AUTO 32012KT 10SM SCT016 OVC032 M10/M13 A3007 RMK AO2 T11021128
KFET 201415Z AUTO 31016G21KT 10SM BKN016 OVC034 M10/M13 A3005 RMK AO2 T11011127
KFET 201355Z AUTO 31015KT 10SM OVC016 M10/M12 A3003 RMK AO2 T10981121
KFET 201335Z AUTO 30011KT 10SM OVC016 M09/M12 A3003 RMK AO2 T10951119
KFET 201315Z AUTO 31013KT 10SM OVC016 M09/M12 A3002 RMK AO2 T10931116
KFET 201255Z AUTO 31014KT 10SM BKN014 OVC033 M09/M11 A2999 RMK AO2 T10911112
KFET 201235Z AUTO 32015KT 10SM SCT014 OVC035 M09/M11 A2994 RMK AO2 T10901113
KFET 201215Z AUTO 31012KT 10SM BKN014 OVC035 M09/M11 A2997 RMK AO2 T10861109
KFET 201155Z AUTO 31012KT 10SM SCT014 OVC033 M08/M11 A2999 RMK AO2 T10851107 11062 21085
KFET 201135Z AUTO 31010KT 10SM SCT014 BKN033 OVC044 M08/M10 A2997 RMK AO2 T10821104
KFET 201115Z AUTO 33009KT 10SM BKN014 BKN022 OVC048 M08/M10 A2994 RMK AO2 T10821105